Time;durP1;ratioP1;P1;durP2;ratioP2;P2;SDS_P1;SDS_P2;PMS_P1;PMS_P2;Temp;Humidity;BMP_temperature;BMP_pressure;BME280_temperature;BME280_humidity;BME280_pressure;Samples;Min_cycle;Max_cycle;Signal;HPM_P1;HPM_P2
2022/08/04 00:01:44;;;;;;;9.95;3.55;;;19.70;99.90;;;;;;4992148;28;20276;-78
2022/08/04 00:04:21;;;;;;;7.13;3.00;;;19.70;99.90;;;;;;5019793;28;20084;-78
2022/08/04 00:07:20;;;;;;;10.13;3.10;;;19.70;99.90;;;;;;5011682;28;20415;-78
2022/08/04 00:10:01;;;;;;;7.67;3.87;;;19.70;99.90;;;;;;4990993;28;20038;-78
2022/08/04 00:12:43;;;;;;;7.82;3.45;;;19.70;99.90;;;;;;4988508;28;20297;-78
2022/08/04 00:15:13;;;;;;;7.53;4.07;;;19.70;99.90;;;;;;5005891;28;20048;-78
2022/08/04 00:17:42;;;;;;;7.43;4.63;;;19.70;99.90;;;;;;5007143;28;20053;-78
2022/08/04 00:20:11;;;;;;;7.53;3.95;;;19.80;99.90;;;;;;4996980;28;20505;-78
2022/08/04 00:22:42;;;;;;;10.80;4.18;;;19.70;99.90;;;;;;5006758;28;20068;-78
2022/08/04 00:25:08;;;;;;;11.35;4.20;;;19.80;99.90;;;;;;5004823;28;20053;-78
2022/08/04 00:27:34;;;;;;;7.30;3.90;;;19.70;99.90;;;;;;4967584;28;20508;-78
2022/08/04 00:30:00;;;;;;;8.43;4.22;;;19.70;99.90;;;;;;4997428;28;20054;-78
2022/08/04 00:32:26;;;;;;;8.23;4.00;;;19.70;99.90;;;;;;4980931;28;20407;-78
2022/08/04 00:34:57;;;;;;;7.65;4.45;;;19.70;99.90;;;;;;4982795;28;20049;-78
2022/08/04 00:37:27;;;;;;;11.15;5.22;;;19.70;99.90;;;;;;4987475;28;20527;-79
2022/08/04 00:39:56;;;;;;;12.50;6.05;;;19.70;99.90;;;;;;4998889;28;20506;-79
2022/08/04 00:42:45;;;;;;;8.48;4.40;;;19.70;99.90;;;;;;4967451;28;20140;-78
2022/08/04 00:45:26;;;;;;;10.07;5.40;;;19.70;99.90;;;;;;4981261;28;20136;-78
2022/08/04 00:48:11;;;;;;;9.43;4.45;;;19.60;99.90;;;;;;4996776;28;20092;-78
2022/08/04 00:50:43;;;;;;;11.65;5.68;;;19.60;99.90;;;;;;5003715;28;20045;-78
2022/08/04 00:53:18;;;;;;;9.70;5.25;;;19.60;99.90;;;;;;5003092;28;20042;-77
2022/08/04 00:56:02;;;;;;;10.45;5.53;;;19.60;99.90;;;;;;5028929;28;20044;-77
2022/08/04 00:58:45;;;;;;;12.27;5.78;;;19.60;99.90;;;;;;5010582;28;20511;-78
2022/08/04 01:01:51;;;;;;;10.30;5.60;;;19.60;99.90;;;;;;4994664;28;20338;-78
2022/08/04 01:04:39;;;;;;;11.55;5.22;;;19.60;99.90;;;;;;4974108;28;20053;-77
2022/08/04 01:07:21;;;;;;;9.85;6.25;;;19.50;99.90;;;;;;5010425;28;20139;-77
2022/08/04 01:10:34;;;;;;;9.88;5.50;;;19.50;99.90;;;;;;5003789;28;20045;-78
2022/08/04 01:13:31;;;;;;;9.40;4.93;;;19.50;99.90;;;;;;4983930;28;20054;-78
2022/08/04 01:16:02;;;;;;;7.35;5.43;;;19.50;99.90;;;;;;4999801;28;20476;-78
2022/08/04 01:18:59;;;;;;;11.75;5.60;;;19.50;99.90;;;;;;5027729;28;20073;-78
2022/08/04 01:21:28;;;;;;;9.98;5.28;;;19.50;99.90;;;;;;5009567;28;20140;-78
2022/08/04 01:24:15;;;;;;;11.20;6.45;;;19.40;99.90;;;;;;5017740;28;20049;-78
2022/08/04 01:27:05;;;;;;;10.15;6.20;;;19.40;99.90;;;;;;5016609;28;20520;-78
2022/08/04 01:29:58;;;;;;;10.38;5.50;;;19.40;99.90;;;;;;5016804;28;20305;-78
2022/08/04 01:32:33;;;;;;;13.23;6.65;;;19.40;99.90;;;;;;5014411;28;20394;-79
2022/08/04 01:35:02;;;;;;;9.38;5.43;;;19.40;99.90;;;;;;5015368;28;20056;-79
2022/08/04 01:37:41;;;;;;;9.35;5.53;;;19.40;99.90;;;;;;5014115;28;20049;-79
2022/08/04 01:40:08;;;;;;;10.52;6.00;;;19.40;99.90;;;;;;4989952;28;20664;-79
2022/08/04 01:42:36;;;;;;;12.90;6.85;;;19.30;99.90;;;;;;5006826;28;20128;-79
2022/08/04 01:45:08;;;;;;;12.25;6.90;;;19.30;99.90;;;;;;5007422;28;20392;-79
2022/08/04 01:47:35;;;;;;;13.43;7.53;;;19.30;99.90;;;;;;5009375;28;20041;-79
2022/08/04 01:50:06;;;;;;;11.02;5.75;;;19.30;99.90;;;;;;4991061;28;20054;-79
2022/08/04 01:52:35;;;;;;;12.45;6.90;;;19.30;99.90;;;;;;5017885;28;20051;-78
2022/08/04 01:55:04;;;;;;;14.27;6.37;;;19.30;99.90;;;;;;5012101;28;20038;-78
2022/08/04 01:57:34;;;;;;;11.52;6.57;;;19.30;99.90;;;;;;4999559;28;20332;-79
2022/08/04 02:00:00;;;;;;;9.20;5.50;;;19.30;99.90;;;;;;5012503;28;20391;-79
2022/08/04 02:02:26;;;;;;;9.38;5.03;;;19.30;99.90;;;;;;5015599;28;20156;-79
2022/08/04 02:04:53;;;;;;;9.10;5.18;;;19.30;99.90;;;;;;5013557;28;20096;-79
2022/08/04 02:07:45;;;;;;;8.45;4.38;;;19.30;99.90;;;;;;5017669;28;20045;-79
2022/08/04 02:10:43;;;;;;;8.93;4.55;;;19.30;99.90;;;;;;5003570;28;20054;-79
2022/08/04 02:13:36;;;;;;;10.43;4.70;;;19.20;99.90;;;;;;4968812;28;20586;-79
2022/08/04 02:16:20;;;;;;;11.90;5.53;;;19.20;99.90;;;;;;5015138;28;20792;-79
2022/08/04 02:19:26;;;;;;;7.45;4.47;;;19.10;99.90;;;;;;5001729;28;20037;-79
2022/08/04 02:21:59;;;;;;;10.38;5.68;;;19.10;99.90;;;;;;4992002;28;20103;-79
2022/08/04 02:24:28;;;;;;;10.27;6.50;;;19.10;99.90;;;;;;5016252;28;20050;-79
2022/08/04 02:26:56;;;;;;;12.63;6.57;;;19.10;99.90;;;;;;5010582;28;20069;-79
2022/08/04 02:29:39;;;;;;;12.55;5.93;;;19.10;99.90;;;;;;5012878;28;20296;-79
2022/08/04 02:32:09;;;;;;;11.55;5.47;;;19.10;99.90;;;;;;5006278;28;20496;-80
2022/08/04 02:34:42;;;;;;;;;;;19.10;99.90;;;;;;4991727;28;20077;-79
2022/08/04 02:37:09;;;;;;;8.45;4.82;;;19.10;99.90;;;;;;5017557;28;20099;-78
2022/08/04 02:39:36;;;;;;;7.10;4.57;;;19.00;99.90;;;;;;5005738;28;20042;-78
2022/08/04 02:42:04;;;;;;;9.02;5.13;;;18.90;99.90;;;;;;5000708;28;20188;-79
2022/08/04 02:44:31;;;;;;;11.05;5.32;;;18.90;99.90;;;;;;5005175;28;20053;-78
2022/08/04 02:46:59;;;;;;;8.07;5.13;;;18.80;99.90;;;;;;5002624;28;20045;-79
2022/08/04 02:49:26;;;;;;;8.88;4.90;;;18.80;99.90;;;;;;5012862;28;20041;-78
2022/08/04 02:51:53;;;;;;;9.27;4.90;;;18.70;99.90;;;;;;5012002;28;20087;-79
2022/08/04 02:54:28;;;;;;;9.13;5.07;;;18.70;99.90;;;;;;5018818;28;20167;-79
2022/08/04 02:56:56;;;;;;;9.23;5.25;;;18.60;99.90;;;;;;5020404;28;20037;-78
2022/08/04 02:59:29;;;;;;;9.80;4.88;;;18.60;99.90;;;;;;5012352;28;20049;-79
2022/08/04 03:01:56;;;;;;;9.45;5.40;;;18.60;99.90;;;;;;5007252;28;20057;-78
2022/08/04 03:04:41;;;;;;;9.45;5.50;;;18.60;99.90;;;;;;4989103;28;20535;-79
2022/08/04 03:07:35;;;;;;;7.38;5.10;;;18.60;99.90;;;;;;5015779;28;20045;-79
2022/08/04 03:10:29;;;;;;;8.02;5.25;;;18.50;99.90;;;;;;5017139;28;20037;-79
2022/08/04 03:13:26;;;;;;;11.05;5.40;;;18.50;99.90;;;;;;5010804;28;20045;-79
2022/08/04 03:16:36;;;;;;;11.73;5.43;;;18.50;99.90;;;;;;4970964;28;20455;-79
2022/08/04 03:19:11;;;;;;;9.18;4.80;;;18.50;99.90;;;;;;4950043;28;20038;-79
2022/08/04 03:21:44;;;;;;;11.55;4.95;;;18.50;99.90;;;;;;4941988;28;20428;-78
2022/08/04 03:24:44;;;;;;;8.35;5.13;;;18.50;99.90;;;;;;4996844;28;20057;-78
2022/08/04 03:27:31;;;;;;;9.30;5.43;;;18.50;99.90;;;;;;5004194;28;20060;-79
2022/08/04 03:30:07;;;;;;;8.73;5.10;;;18.50;99.90;;;;;;5018925;28;20076;-78
2022/08/04 03:33:20;;;;;;;7.75;5.70;;;18.50;99.90;;;;;;5017368;28;20049;-78
2022/08/04 03:36:07;;;;;;;8.90;5.57;;;18.50;99.90;;;;;;4961665;28;20094;-79
2022/08/04 03:39:00;;;;;;;9.93;6.47;;;18.40;99.90;;;;;;4963497;28;20053;-78
2022/08/04 03:41:45;;;;;;;11.13;6.40;;;18.40;99.90;;;;;;5020276;28;20342;-79
2022/08/04 03:44:35;;;;;;;10.25;6.35;;;18.30;99.90;;;;;;5022397;28;20048;-78
2022/08/04 03:47:10;;;;;;;;;;;18.30;99.90;;;;;;5008172;28;20445;-78
2022/08/04 03:50:17;;;;;;;8.15;5.85;;;18.20;99.90;;;;;;5013413;28;19921;-78
2022/08/04 03:53:14;;;;;;;10.95;6.68;;;18.20;99.90;;;;;;4959215;28;20583;-78
2022/08/04 03:56:07;;;;;;;12.07;7.40;;;18.10;99.90;;;;;;5031706;28;20396;-78
2022/08/04 03:58:47;;;;;;;10.75;6.82;;;18.10;99.90;;;;;;5005207;28;20064;-78
2022/08/04 04:01:31;;;;;;;9.68;7.10;;;18.00;99.90;;;;;;5019736;28;20069;-78
2022/08/04 04:04:35;;;;;;;11.32;7.25;;;18.00;99.90;;;;;;5013184;28;20116;-78
2022/08/04 04:07:03;;;;;;;11.73;7.43;;;18.10;99.90;;;;;;5012833;28;20116;-78
2022/08/04 04:09:38;;;;;;;10.93;6.57;;;18.10;99.90;;;;;;5004019;28;20065;-78
2022/08/04 04:12:17;;;;;;;11.77;6.20;;;18.10;99.90;;;;;;5011280;28;20119;-78
2022/08/04 04:15:03;;;;;;;11.77;6.65;;;18.10;99.90;;;;;;5017636;28;21516;-78
2022/08/04 04:17:46;;;;;;;11.13;6.75;;;18.10;99.90;;;;;;5031057;28;20796;-79
2022/08/04 04:20:35;;;;;;;11.18;6.88;;;18.10;99.90;;;;;;5011833;28;20096;-78
2022/08/04 04:23:29;;;;;;;11.20;6.80;;;18.10;99.90;;;;;;5001091;28;20440;-78
2022/08/04 04:26:21;;;;;;;13.65;7.65;;;18.20;99.90;;;;;;5002979;28;20308;-78
2022/08/04 04:29:11;;;;;;;14.25;7.93;;;18.20;99.90;;;;;;5022435;28;20053;-78
2022/08/04 04:32:13;;;;;;;8.38;6.28;;;18.10;99.90;;;;;;5010879;28;20186;-79
2022/08/04 04:34:42;;;;;;;11.38;8.00;;;18.10;99.90;;;;;;4999868;28;20047;-78
2022/08/04 04:37:47;;;;;;;12.57;8.63;;;18.20;99.90;;;;;;4999491;28;20056;-78
2022/08/04 04:40:22;;;;;;;14.95;8.52;;;18.20;99.90;;;;;;5006870;28;20049;-78
2022/08/04 04:42:54;;;;;;;11.65;7.25;;;18.20;99.90;;;;;;5006152;28;20110;-78
2022/08/04 04:45:30;;;;;;;13.82;9.20;;;18.20;99.90;;;;;;5019703;28;20072;-78
2022/08/04 04:48:05;;;;;;;11.57;8.00;;;18.30;99.90;;;;;;5004808;28;20440;-78
2022/08/04 04:50:37;;;;;;;10.07;7.38;;;18.30;99.90;;;;;;5011021;28;20488;-78
2022/08/04 04:53:40;;;;;;;12.82;6.80;;;18.30;99.90;;;;;;5008335;28;20057;-78
2022/08/04 04:56:15;;;;;;;14.18;7.15;;;18.40;99.90;;;;;;4999079;28;20238;-78
2022/08/04 04:58:42;;;;;;;9.63;7.65;;;18.40;99.90;;;;;;5012962;28;20041;-78
2022/08/04 05:01:54;;;;;;;11.40;7.00;;;18.50;99.90;;;;;;5007812;28;20399;-78
2022/08/04 05:04:20;;;;;;;14.20;8.20;;;18.50;99.90;;;;;;5010336;28;20054;-79
2022/08/04 05:06:51;;;;;;;9.50;8.50;;;18.50;99.90;;;;;;5003621;28;20054;-78
2022/08/04 05:09:31;;;;;;;12.48;7.55;;;18.60;99.90;;;;;;5002781;28;20447;-78
2022/08/04 05:12:24;;;;;;;13.20;8.45;;;18.60;99.90;;;;;;5021849;28;20056;-78
2022/08/04 05:14:53;;;;;;;14.93;8.27;;;18.70;99.90;;;;;;5021639;28;20053;-79
2022/08/04 05:17:29;;;;;;;11.90;7.33;;;18.70;99.90;;;;;;5002368;28;20346;-79
2022/08/04 05:20:04;;;;;;;12.82;8.63;;;18.80;99.90;;;;;;5013383;28;20042;-80
2022/08/04 05:22:47;;;;;;;10.00;7.15;;;18.80;99.90;;;;;;4999904;28;20041;-79
2022/08/04 05:25:24;;;;;;;11.68;7.32;;;18.90;99.90;;;;;;5020559;28;20077;-78
2022/08/04 05:28:13;;;;;;;10.68;8.00;;;19.00;99.90;;;;;;4997646;28;20056;-80
2022/08/04 05:30:47;;;;;;;16.15;8.57;;;19.00;99.90;;;;;;4991609;28;20120;-79
2022/08/04 05:33:33;;;;;;;10.85;8.20;;;19.10;99.90;;;;;;5012900;28;20413;-79
2022/08/04 05:36:05;;;;;;;12.30;9.32;;;19.20;99.90;;;;;;5017587;28;20064;-79
2022/08/04 05:38:38;;;;;;;14.35;8.27;;;19.20;99.90;;;;;;4991228;28;20072;-79
2022/08/04 05:41:07;;;;;;;13.65;9.15;;;19.30;99.90;;;;;;5020922;28;20284;-79
2022/08/04 05:43:34;;;;;;;11.23;8.40;;;19.40;99.90;;;;;;5018656;28;20030;-79
2022/08/04 05:46:01;;;;;;;12.93;9.63;;;19.40;99.90;;;;;;4993728;28;20281;-79
2022/08/04 05:48:28;;;;;;;13.75;8.65;;;19.50;99.90;;;;;;5011595;28;20049;-79
2022/08/04 05:50:55;;;;;;;12.88;9.27;;;19.60;99.90;;;;;;5018394;28;20038;-79
2022/08/04 05:53:24;;;;;;;14.43;9.07;;;19.70;99.90;;;;;;5004205;28;20041;-79
2022/08/04 05:55:51;;;;;;;12.75;9.05;;;19.70;99.90;;;;;;5010590;28;20053;-79
2022/08/04 05:58:18;;;;;;;12.40;9.00;;;19.80;99.90;;;;;;5019345;28;20514;-80
2022/08/04 06:00:45;;;;;;;14.15;9.85;;;19.80;99.90;;;;;;5014094;28;20132;-79
2022/08/04 06:03:12;;;;;;;11.77;8.70;;;19.90;99.90;;;;;;4987764;28;20054;-80
2022/08/04 06:05:41;;;;;;;12.52;9.38;;;20.00;99.90;;;;;;4995333;28;20049;-80
2022/08/04 06:08:07;;;;;;;14.98;9.95;;;20.10;99.90;;;;;;5018730;28;20405;-79
2022/08/04 06:10:36;;;;;;;12.00;8.90;;;20.10;99.90;;;;;;5023882;28;20049;-79
2022/08/04 06:13:07;;;;;;;12.73;9.57;;;20.20;99.90;;;;;;5007332;28;20049;-79
2022/08/04 06:15:41;;;;;;;11.20;8.93;;;20.20;99.90;;;;;;5023602;28;20511;-79
2022/08/04 06:18:11;;;;;;;15.13;10.00;;;20.30;99.90;;;;;;4995835;28;20374;-79
2022/08/04 06:20:39;;;;;;;15.05;9.65;;;20.40;99.90;;;;;;5022243;28;20052;-79
2022/08/04 06:23:09;;;;;;;14.20;9.48;;;20.50;99.90;;;;;;5017884;28;20040;-79
2022/08/04 06:25:54;;;;;;;14.02;8.90;;;20.60;99.90;;;;;;5016777;28;20042;-79
2022/08/04 06:28:24;;;;;;;13.35;9.98;;;20.70;99.90;;;;;;5007359;28;20100;-79
2022/08/04 06:30:52;;;;;;;11.80;9.50;;;20.80;99.90;;;;;;5002406;28;20045;-79
2022/08/04 06:33:35;;;;;;;12.02;10.18;;;21.00;99.90;;;;;;5014193;28;20077;-79
2022/08/04 06:36:04;;;;;;;12.30;9.38;;;21.20;99.90;;;;;;5038007;28;20337;-79
2022/08/04 06:38:34;;;;;;;13.95;9.32;;;21.30;99.90;;;;;;5019172;28;20049;-79
2022/08/04 06:41:02;;;;;;;12.65;8.45;;;21.50;99.90;;;;;;5021335;28;20049;-79
2022/08/04 06:43:30;;;;;;;12.13;8.63;;;21.50;99.90;;;;;;5021000;28;20093;-79
2022/08/04 06:45:57;;;;;;;11.90;8.05;;;21.70;99.90;;;;;;5024201;28;20099;-79
2022/08/04 06:48:24;;;;;;;12.52;8.25;;;21.80;99.90;;;;;;5009294;28;20175;-80
2022/08/04 06:50:54;;;;;;;14.82;8.10;;;21.90;99.90;;;;;;5012615;28;20065;-79
2022/08/04 06:53:20;;;;;;;11.60;7.68;;;22.00;99.90;;;;;;5015705;28;20054;-79
2022/08/04 06:55:47;;;;;;;12.38;7.47;;;22.20;99.90;;;;;;5021452;28;20554;-79
2022/08/04 06:58:15;;;;;;;11.48;6.65;;;22.40;99.90;;;;;;5018507;28;20045;-79
2022/08/04 07:00:43;;;;;;;11.05;5.95;;;22.50;99.90;;;;;;5001440;28;20339;-79
2022/08/04 07:03:10;;;;;;;9.98;6.45;;;22.70;99.90;;;;;;5007478;28;20041;-79
2022/08/04 07:05:37;;;;;;;17.52;6.97;;;22.80;99.90;;;;;;5013670;28;20103;-79
2022/08/04 07:08:03;;;;;;;9.82;5.90;;;22.90;99.90;;;;;;5038055;28;20375;-79
2022/08/04 07:10:30;;;;;;;14.40;6.32;;;23.10;99.90;;;;;;4986545;28;20056;-79
2022/08/04 07:12:57;;;;;;;10.63;5.93;;;23.20;99.90;;;;;;5004095;28;20033;-79
2022/08/04 07:15:24;;;;;;;10.50;6.47;;;23.40;99.90;;;;;;5014443;28;20052;-79
2022/08/04 07:17:50;;;;;;;13.20;5.93;;;23.50;99.90;;;;;;5006625;28;20088;-78
2022/08/04 07:20:18;;;;;;;12.05;5.38;;;23.60;99.90;;;;;;5000909;28;20119;-78
2022/08/04 07:22:47;;;;;;;11.02;4.65;;;23.70;99.90;;;;;;5017253;28;20055;-78
2022/08/04 07:25:14;;;;;;;12.63;5.43;;;23.80;99.90;;;;;;5021228;28;20526;-77
2022/08/04 07:27:42;;;;;;;11.32;4.82;;;23.90;99.90;;;;;;4999141;28;20046;-78
2022/08/04 07:30:09;;;;;;;12.90;4.70;;;23.90;99.90;;;;;;5018864;28;20045;-78
2022/08/04 07:32:36;;;;;;;11.27;4.78;;;24.00;99.90;;;;;;5023197;28;20052;-77
2022/08/04 07:35:04;;;;;;;11.35;3.80;;;24.20;99.90;;;;;;5019203;28;20145;-78
2022/08/04 07:37:31;;;;;;;10.75;4.30;;;24.30;99.90;;;;;;5000485;28;20204;-77
2022/08/04 07:39:57;;;;;;;9.75;4.28;;;24.50;99.90;;;;;;5036837;28;20057;-78
2022/08/04 07:42:23;;;;;;;18.02;4.35;;;24.60;99.90;;;;;;5020387;28;20058;-77
2022/08/04 07:44:49;;;;;;;10.75;4.20;;;24.70;99.90;;;;;;5001204;28;20482;-77
2022/08/04 07:47:15;;;;;;;13.05;4.32;;;24.90;99.90;;;;;;5004377;28;20120;-78
2022/08/04 07:49:41;;;;;;;10.07;3.72;;;25.10;99.90;;;;;;4998648;28;20053;-77
2022/08/04 07:52:08;;;;;;;10.85;3.70;;;25.20;99.90;;;;;;5006238;28;20042;-79
2022/08/04 07:54:34;;;;;;;8.75;3.50;;;25.40;99.90;;;;;;5015969;28;20052;-77
2022/08/04 07:57:00;;;;;;;10.52;3.25;;;25.50;99.90;;;;;;5010548;28;20128;-78
2022/08/04 07:59:27;;;;;;;11.05;3.65;;;25.60;99.90;;;;;;5005823;28;20049;-78
2022/08/04 08:01:54;;;;;;;6.80;3.28;;;25.80;99.90;;;;;;5016341;28;20052;-78
2022/08/04 08:04:21;;;;;;;12.45;3.47;;;25.90;99.90;;;;;;5017124;28;20833;-79
2022/08/04 08:06:47;;;;;;;8.02;2.90;;;26.00;99.90;;;;;;5006385;28;20033;-77
2022/08/04 08:09:18;;;;;;;6.63;2.60;;;26.00;99.90;;;;;;5003522;28;20057;-77
2022/08/04 08:11:46;;;;;;;11.73;3.92;;;26.10;99.90;;;;;;5022005;28;20049;-78
2022/08/04 08:14:12;;;;;;;8.70;3.30;;;26.30;99.90;;;;;;5018744;28;20527;-78
2022/08/04 08:16:38;;;;;;;11.73;3.50;;;26.30;99.90;;;;;;5021932;28;20124;-77
2022/08/04 08:19:04;;;;;;;12.95;3.20;;;26.50;99.90;;;;;;5018159;28;20497;-78
2022/08/04 08:21:30;;;;;;;7.72;3.20;;;26.70;99.90;;;;;;5004234;28;20571;-78
2022/08/04 08:23:57;;;;;;;12.43;4.20;;;26.80;99.90;;;;;;5022156;28;20049;-77
2022/08/04 08:26:26;;;;;;;7.78;3.72;;;26.90;99.90;;;;;;4997140;28;21161;-78
2022/08/04 08:28:55;;;;;;;9.77;3.47;;;26.90;99.90;;;;;;5018121;28;20045;-78
2022/08/04 08:31:21;;;;;;;9.60;3.10;;;26.90;99.90;;;;;;5019282;28;20577;-78
2022/08/04 08:33:52;;;;;;;11.35;3.15;;;27.00;99.90;;;;;;5003770;28;20512;-77
2022/08/04 08:36:31;;;;;;;10.63;3.45;;;27.00;99.90;;;;;;4992307;28;20057;-78
2022/08/04 08:39:17;;;;;;;7.65;2.70;;;27.00;99.90;;;;;;5016960;28;20053;-78
2022/08/04 08:42:20;;;;;;;10.60;3.05;;;27.00;99.90;;;;;;5011335;28;20045;-77
2022/08/04 08:45:05;;;;;;;8.20;2.60;;;27.00;99.90;;;;;;5019307;28;20045;-78
2022/08/04 08:47:45;;;;;;;7.95;3.88;;;27.00;99.90;;;;;;5014017;28;20092;-78
2022/08/04 08:50:39;;;;;;;10.40;3.35;;;27.00;99.90;;;;;;5012583;28;20049;-78
2022/08/04 08:53:14;;;;;;;9.00;2.92;;;27.10;99.90;;;;;;5012163;28;20088;-78
2022/08/04 08:55:57;;;;;;;11.25;3.30;;;27.30;99.90;;;;;;4995608;28;20100;-78
2022/08/04 08:58:29;;;;;;;7.50;3.38;;;27.40;99.90;;;;;;4998898;28;20042;-78
2022/08/04 09:01:31;;;;;;;7.38;3.17;;;27.50;99.90;;;;;;5015446;28;20540;-79
2022/08/04 09:04:20;;;;;;;7.03;3.25;;;27.60;99.90;;;;;;4997821;28;20571;-78
2022/08/04 09:07:08;;;;;;;;;;;27.80;99.90;;;;;;5022130;28;20127;-78
2022/08/04 09:10:13;;;;;;;8.45;3.85;;;27.80;99.90;;;;;;5005594;28;19925;-79
2022/08/04 09:12:59;;;;;;;7.05;3.13;;;27.90;99.90;;;;;;5013562;28;20054;-76
2022/08/04 09:15:48;;;;;;;9.27;3.15;;;28.00;99.90;;;;;;5013390;28;20576;-78
2022/08/04 09:18:28;;;;;;;8.25;3.17;;;28.00;99.90;;;;;;4993586;28;20049;-78
2022/08/04 09:21:25;;;;;;;5.35;2.80;;;28.10;99.90;;;;;;5011151;28;20042;-78
2022/08/04 09:24:07;;;;;;;8.52;3.60;;;28.20;99.90;;;;;;5009477;28;20063;-78
2022/08/04 09:26:42;;;;;;;10.90;3.53;;;28.40;99.90;;;;;;5018304;28;20037;-78
2022/08/04 09:29:42;;;;;;;8.13;3.70;;;28.60;99.90;;;;;;5015406;28;20389;-78
2022/08/04 09:32:25;;;;;;;11.95;4.18;;;28.80;99.90;;;;;;5004008;28;20057;-79
2022/08/04 09:35:10;;;;;;;9.43;3.10;;;28.90;99.90;;;;;;5014827;28;20349;-78
2022/08/04 09:37:53;;;;;;;8.13;3.45;;;29.00;99.90;;;;;;5011592;28;20439;-79
2022/08/04 09:40:45;;;;;;;7.72;3.30;;;29.10;99.90;;;;;;5017764;28;20408;-78
2022/08/04 09:43:25;;;;;;;11.82;4.07;;;29.10;99.90;;;;;;5008346;28;20069;-78
2022/08/04 09:46:14;;;;;;;8.70;3.50;;;29.10;99.90;;;;;;5025530;28;20091;-79
2022/08/04 09:48:55;;;;;;;14.05;4.47;;;29.10;99.90;;;;;;4994656;28;20060;-78
2022/08/04 09:51:52;;;;;;;13.05;3.22;;;29.00;99.90;;;;;;4997572;28;20050;-78
2022/08/04 09:54:32;;;;;;;11.75;4.40;;;28.80;99.90;;;;;;5007332;28;20131;-78
2022/08/04 09:57:13;;;;;;;7.70;3.90;;;28.80;99.90;;;;;;5018172;28;20103;-79
2022/08/04 10:00:03;;;;;;;6.43;3.65;;;28.80;99.90;;;;;;5010345;28;20513;-79
2022/08/04 10:02:51;;;;;;;7.63;3.65;;;28.80;99.90;;;;;;5019586;28;20037;-78
2022/08/04 10:05:41;;;;;;;11.75;4.13;;;28.70;99.90;;;;;;5016493;28;20045;-78
2022/08/04 10:08:17;;;;;;;9.63;3.92;;;28.70;99.90;;;;;;4999698;28;20037;-78
2022/08/04 10:11:05;;;;;;;8.52;3.38;;;28.80;99.90;;;;;;5003462;28;20452;-78
2022/08/04 10:13:47;;;;;;;6.82;3.05;;;28.90;99.90;;;;;;5021059;28;20061;-78
2022/08/04 10:16:44;;;;;;;6.70;3.72;;;28.80;99.90;;;;;;5020544;28;20076;-78
2022/08/04 10:19:25;;;;;;;8.82;3.40;;;28.80;99.90;;;;;;5020312;28;20056;-79
2022/08/04 10:21:54;;;;;;;6.07;2.97;;;28.70;99.90;;;;;;5013349;28;20080;-78
2022/08/04 10:24:35;;;;;;;9.18;3.55;;;28.70;99.90;;;;;;5016598;28;20141;-78
2022/08/04 10:27:37;;;;;;;10.45;3.95;;;28.80;99.90;;;;;;5007031;28;20072;-78
2022/08/04 10:30:11;;;;;;;7.93;2.92;;;28.90;99.90;;;;;;5015054;28;20037;-78
2022/08/04 10:32:46;;;;;;;7.18;2.80;;;28.90;99.90;;;;;;5002774;28;20049;-76
2022/08/04 10:35:17;;;;;;;8.75;2.30;;;28.90;99.90;;;;;;5010631;28;20499;-79
2022/08/04 10:38:05;;;;;;;9.40;2.63;;;28.80;99.90;;;;;;5023429;28;20463;-79
2022/08/04 10:40:36;;;;;;;7.05;2.45;;;28.60;99.90;;;;;;5021139;28;20084;-79
2022/08/04 10:43:28;;;;;;;9.38;2.80;;;28.50;99.90;;;;;;5022988;28;20041;-79
2022/08/04 10:45:58;;;;;;;7.00;2.08;;;28.50;99.90;;;;;;4998961;28;20478;-79
2022/08/04 10:48:42;;;;;;;12.00;2.40;;;28.50;99.90;;;;;;5006689;28;20572;-79
2022/08/04 10:51:21;;;;;;;8.70;2.40;;;28.50;99.90;;;;;;5024026;28;20479;-79
2022/08/04 10:53:57;;;;;;;6.35;2.13;;;28.50;99.90;;;;;;5020638;28;20041;-79
2022/08/04 10:56:40;;;;;;;7.32;2.20;;;28.40;99.90;;;;;;5019160;28;20114;-79
2022/08/04 10:59:20;;;;;;;10.05;2.35;;;28.50;99.90;;;;;;5019357;28;20045;-79
2022/08/04 11:01:49;;;;;;;7.25;2.00;;;28.40;99.90;;;;;;5013766;28;20045;-78
2022/08/04 11:04:41;;;;;;;7.47;2.00;;;28.30;99.90;;;;;;4999440;28;20314;-79
2022/08/04 11:07:09;;;;;;;10.57;2.22;;;28.30;99.90;;;;;;5006707;28;20501;-77
2022/08/04 11:09:38;;;;;;;7.77;2.40;;;28.30;99.90;;;;;;5010506;28;20046;-76
2022/08/04 11:12:16;;;;;;;7.90;2.15;;;28.20;99.90;;;;;;5009494;28;20107;-77
2022/08/04 11:15:05;;;;;;;6.70;1.92;;;28.30;99.90;;;;;;5013695;28;20716;-77
2022/08/04 11:17:35;;;;;;;7.53;2.17;;;28.40;99.90;;;;;;5014580;28;21099;-76
2022/08/04 11:20:12;;;;;;;8.43;1.98;;;28.40;99.90;;;;;;5020850;28;20037;-76
2022/08/04 11:22:57;;;;;;;9.65;1.90;;;28.30;99.90;;;;;;5003645;28;20448;-76
2022/08/04 11:25:28;;;;;;;6.32;1.80;;;28.30;99.90;;;;;;5011051;28;20050;-77
2022/08/04 11:28:29;;;;;;;7.53;1.90;;;28.20;99.90;;;;;;5011542;28;20390;-76
2022/08/04 11:31:06;;;;;;;3.95;1.42;;;28.10;99.90;;;;;;5018100;28;20037;-77
2022/08/04 11:33:32;;;;;;;8.60;1.85;;;28.00;99.90;;;;;;5020397;28;20052;-79
2022/08/04 11:36:07;;;;;;;7.22;1.75;;;28.00;99.90;;;;;;5012226;28;20046;-77
2022/08/04 11:38:52;;;;;;;6.65;2.10;;;27.90;99.90;;;;;;5007596;28;20053;-77
2022/08/04 11:41:25;;;;;;;5.70;2.03;;;28.00;99.90;;;;;;5006548;28;20129;-76
2022/08/04 11:43:55;;;;;;;7.28;2.05;;;27.90;99.90;;;;;;5011212;28;20288;-78
2022/08/04 11:46:31;;;;;;;4.97;1.88;;;27.90;99.90;;;;;;5001574;28;20097;-76
2022/08/04 11:49:11;;;;;;;4.88;1.98;;;27.70;99.90;;;;;;4998537;28;20414;-77
2022/08/04 11:51:37;;;;;;;5.07;2.03;;;27.60;99.90;;;;;;5010536;28;20045;-76
2022/08/04 11:54:03;;;;;;;5.35;1.60;;;27.60;99.90;;;;;;5000900;28;20044;-76
2022/08/04 11:56:30;;;;;;;3.15;1.40;;;27.60;99.90;;;;;;5010305;28;20045;-76
2022/08/04 11:58:58;;;;;;;3.72;1.13;;;27.50;99.90;;;;;;4978954;28;20131;-76
2022/08/04 12:01:27;;;;;;;3.95;1.48;;;27.40;99.90;;;;;;5016427;28;20319;-77
2022/08/04 12:04:33;;;;;;;3.20;1.20;;;27.20;99.90;;;;;;5001190;28;20037;-77
2022/08/04 12:07:33;;;;;;;4.80;1.40;;;27.10;99.90;;;;;;5002922;28;20105;-77
2022/08/04 12:10:11;;;;;;;4.22;1.27;;;27.00;99.90;;;;;;5005779;28;20037;-76
2022/08/04 12:12:45;;;;;;;6.28;1.30;;;26.80;99.90;;;;;;4999421;28;20527;-77
2022/08/04 12:15:26;;;;;;;3.50;1.20;;;26.80;99.90;;;;;;5013227;28;20404;-76
2022/08/04 12:18:17;;;;;;;4.72;1.40;;;26.60;99.90;;;;;;5009232;28;20085;-76
2022/08/04 12:20:49;;;;;;;6.63;1.48;;;26.60;99.90;;;;;;5013561;28;20046;-76
2022/08/04 12:23:39;;;;;;;2.92;1.50;;;26.50;99.90;;;;;;4972351;28;1224965;-77
2022/08/04 12:26:08;;;;;;;5.18;1.80;;;26.30;99.90;;;;;;5007867;28;20056;-77
2022/08/04 12:28:38;;;;;;;3.95;1.70;;;26.20;99.90;;;;;;5013282;28;20050;-77
2022/08/04 12:31:22;;;;;;;5.15;1.58;;;26.10;99.90;;;;;;4996139;28;20052;-77
2022/08/04 12:33:55;;;;;;;5.22;1.60;;;26.00;99.90;;;;;;5009452;28;20056;-76
2022/08/04 12:36:37;;;;;;;3.65;1.23;;;25.80;99.90;;;;;;5005087;28;20136;-77
2022/08/04 12:39:21;;;;;;;2.92;1.50;;;25.80;99.90;;;;;;5005553;28;20072;-77
2022/08/04 12:42:40;;;;;;;3.42;1.30;;;25.80;99.90;;;;;;5008031;28;20041;-77
2022/08/04 12:45:09;;;;;;;2.92;1.55;;;25.70;99.90;;;;;;4953126;28;20042;-76
2022/08/04 12:47:36;;;;;;;3.85;1.52;;;25.70;99.90;;;;;;4994317;28;20139;-77
2022/08/04 12:50:04;;;;;;;2.83;1.38;;;25.60;99.90;;;;;;5001807;28;20041;-77
2022/08/04 12:52:48;;;;;;;4.85;1.40;;;25.70;99.90;;;;;;5006266;28;20057;-77
2022/08/04 12:55:16;;;;;;;2.70;1.23;;;25.70;99.90;;;;;;4978821;28;20374;-77
2022/08/04 12:57:42;;;;;;;4.47;1.20;;;25.70;99.90;;;;;;5012432;28;20050;-77
2022/08/04 13:00:09;;;;;;;3.65;1.20;;;25.80;99.90;;;;;;4979553;28;20049;-77
2022/08/04 13:02:42;;;;;;;4.22;1.73;;;25.80;99.90;;;;;;4992540;28;20046;-77
2022/08/04 13:05:10;;;;;;;5.63;1.40;;;25.80;99.90;;;;;;5009093;28;20468;-76
2022/08/04 13:07:39;;;;;;;4.03;1.35;;;25.80;99.90;;;;;;5009344;28;20559;-79
2022/08/04 13:10:16;;;;;;;4.50;1.42;;;25.90;99.90;;;;;;5004749;28;20285;-79
2022/08/04 13:12:56;;;;;;;3.55;1.20;;;26.00;99.90;;;;;;5013375;28;20057;-79
2022/08/04 13:15:29;;;;;;;3.45;1.17;;;26.10;99.90;;;;;;4991661;28;20050;-79
2022/08/04 13:18:02;;;;;;;3.22;1.40;;;26.20;99.90;;;;;;4998882;28;20069;-78
2022/08/04 13:20:34;;;;;;;4.07;1.70;;;26.30;99.90;;;;;;5004002;28;20046;-78
2022/08/04 13:23:09;;;;;;;3.05;0.98;;;26.30;99.90;;;;;;5011207;28;20042;-79
2022/08/04 13:25:47;;;;;;;3.08;1.45;;;26.40;99.90;;;;;;5005769;28;20610;-79
2022/08/04 13:28:21;;;;;;;5.00;1.30;;;26.70;99.90;;;;;;4994321;28;20060;-79
2022/08/04 13:31:04;;;;;;;4.00;1.52;;;26.90;99.90;;;;;;4997781;28;20056;-79
2022/08/04 13:33:33;;;;;;;4.20;1.63;;;27.10;99.90;;;;;;5004664;28;20069;-80
2022/08/04 13:35:59;;;;;;;3.40;1.23;;;27.20;99.90;;;;;;5008156;28;20129;-78